Tahifet, Algeria
Current Conditions -  °F | °C
As of 9:30 AM on Sunday 26 Oct 2014 (Local Time) from DAAT Reporting Station
Clear Clear  
Wind Chill: 77°   Ceiling: Unl
Heat Index: 77°   Visibility: 6mi
Dew Point: 30°   Wind: 0mph
Humidity: 18%   Direction: NA
Pressure: 30.21"   Gusts: NA
Location:  22.94°N, 6.01°E
Report Text: DAAT 260830Z 00000KT CAVOK 25/M01 Q1023
Loading
Personal Weather Stations






























Interactive Weather Map
Tropical Storm Tracking
New forecast layout! Learn more

10-Day Weather Forecast

Advertisements
Track Severe Weather on mobile